Mason, Oklahoma
Current Conditions -  °F | °C
As of 11:55 AM on Friday 31 Oct 2014 (Local Time) from KOKM Reporting Station
Scattered Clouds Scattered Clouds  
Wind Chill: 52°   Ceiling: Unl
Heat Index: 52°   Visibility: 10mi
Dew Point: 38°   Wind: 15mph
Humidity: 60%   Direction: 360°N
Pressure: 30.41"   Gusts: 28mph
Location:  35.469°N, 96.2923°W
Report Text: KOKM 311655Z AUTO 36013G24KT 10SM SCT032 11/04 A3041 RMK AO2 T01110036
Loading
Personal Weather Stations






























Interactive Weather Map
Tropical Storm Tracking
New forecast layout! Learn more

10-Day Weather Forecast

Advertisements
Track Severe Weather on mobile